Minerva Virgo — SXXT — position and weather

sailwx.info

Track history (hours):
 
Tides and Currents Weather Stations Pressure Air Temp Water Temp Dewpoint Dewpoint Depression Visibility Wind Speed Wind Dir Waves Ship Positions

Minerva Virgo

Last reported at 2015-Jul-22 17:33 UTC. Time now 2015-Aug-03 17:06 UTC.
Position N 26°26' W 079°27'.
Warning: this ship's position is 11 days out of date.

Length 182 m; draft 9.5 m.

Type: Ship (hazmat cat A). MMSI: 240730000.

Date/timePositionNaut miles runAvg speedWind from/ knotsBaromVisibWave heightAir tempDewpointWater temp
2015-Jul-22 17:33N 26°26' W 079°27'1414.4
2015-Jul-22 16:33N 26°12' W 079°29'1514.7
2015-Jul-22 15:33N 25°57' W 079°31'1514.8
2015-Jul-22 14:33N 25°42' W 079°32'  
2015-Jul-19 07:17N 29°20' W 094°42'1211.1
2015-Jul-19 06:09N 29°29' W 094°52'711.5
2015-Jul-19 05:33N 29°35' W 094°56'10 9.9
2015-Jul-19 04:34N 29°44' W 095°02'1 0.1
2015-Jul-18 11:06N 29°44' W 095°03'0 0.7
2015-Jul-18 10:33N 29°44' W 095°03'8 7.8
2015-Jul-18 09:33N 29°38' W 094°58'1211.6
2015-Jul-18 08:33N 29°28' W 094°51'1010.2
2015-Jul-18 07:33N 29°21' W 094°42'  
Track history (hours):
 
Tides and Currents Weather Stations Pressure Air Temp Water Temp Dewpoint Dewpoint Depression Visibility Wind Speed Wind Dir Waves Ship Positions

Minerva Virgo

Last reported at 2015-Jul-22 17:33 UTC. Time now 2015-Aug-03 17:06 UTC.
Position N 26°26' W 079°27'.
Warning: this ship's position is 11 days out of date.

Length 182 m; draft 9.5 m.

Type: Ship (hazmat cat A). MMSI: 240730000.

Date/timePositionNaut miles runAvg speedWind from/ knotsBaromVisibWave heightAir tempDewpointWater temp
2015-Jul-22 17:33N 26°26' W 079°27'1414.4
2015-Jul-22 16:33N 26°12' W 079°29'1514.7
2015-Jul-22 15:33N 25°57' W 079°31'1514.8
2015-Jul-22 14:33N 25°42' W 079°32'  
2015-Jul-19 07:17N 29°20' W 094°42'1211.1
2015-Jul-19 06:09N 29°29' W 094°52'711.5
2015-Jul-19 05:33N 29°35' W 094°56'10 9.9
2015-Jul-19 04:34N 29°44' W 095°02'1 0.1
2015-Jul-18 11:06N 29°44' W 095°03'0 0.7
2015-Jul-18 10:33N 29°44' W 095°03'8 7.8
2015-Jul-18 09:33N 29°38' W 094°58'1211.6
2015-Jul-18 08:33N 29°28' W 094°51'1010.2
2015-Jul-18 07:33N 29°21' W 094°42'  

Dump ship's entire track history